Heinz Schepers — V2OM7 — position and weather

sailwx.info

Track history (hours):
 
Tides and Currents Weather Stations Pressure Air Temp Water Temp Dewpoint Dewpoint Depression Visibility Wind Speed Wind Dir Waves Ship Positions

Heinz Schepers

Last reported at 2014-Jul-28 11:33 UTC. Time now 2014-Jul-28 12:28 UTC.
Position N 37°43' E 026°29'.

Length 101 m; draft 6.5 m.

Type: Cargo ship. MMSI: 304596000.

Date/timePositionNaut miles runAvg speedWind from/ knotsBaromVisibWave heightAir tempDewpointWater temp
2014-Jul-28 11:33N 37°43' E 026°29'1513.7
2014-Jul-28 10:30N 37°50' E 026°13'2613.5
2014-Jul-28 08:33N 38°04' E 025°45'1313.5
2014-Jul-28 07:33N 38°11' E 025°30'1513.8
2014-Jul-28 06:29N 38°19' E 025°14'  
2014-Jul-23 22:12N 37°49' E 026°49'14414.4
2014-Jul-23 12:13N 36°09' E 028°58'19314.1
2014-Jul-22 22:33N 34°39' E 032°27'1413.8
2014-Jul-22 21:33N 34°35' E 032°43'1312.9
2014-Jul-22 20:33N 34°32' E 032°58'8 7.9
2014-Jul-22 19:34N 34°39' E 033°01'0 0.2
2014-Jul-22 18:33N 34°39' E 033°01'0 0.0
2014-Jul-22 17:31N 34°39' E 033°01'0 0.0
2014-Jul-22 16:31N 34°39' E 033°01'0 0.0
2014-Jul-22 15:31N 34°39' E 033°01'0 0.0
2014-Jul-22 14:34N 34°39' E 033°01'0 0.0
2014-Jul-22 13:33N 34°39' E 033°01'0 0.0
2014-Jul-22 12:33N 34°39' E 033°01'0 0.0
2014-Jul-22 11:33N 34°39' E 033°01'0 0.0
2014-Jul-22 10:33N 34°39' E 033°01'0 0.0
2014-Jul-22 09:33N 34°39' E 033°01'0 0.0
2014-Jul-22 08:33N 34°39' E 033°01'0 0.4
2014-Jul-22 07:33N 34°39' E 033°01'8 7.6
2014-Jul-22 06:33N 34°32' E 032°59'1313.5
2014-Jul-22 05:33N 34°35' E 032°43'1313.1
2014-Jul-22 04:34N 34°38' E 032°28'31712.6
2014-Jul-21 03:24N 37°19' E 026°51'6613.2
2014-Jul-20 22:22N 38°02' E 025°47'1413.3
2014-Jul-20 21:18N 38°09' E 025°32'1213.6
2014-Jul-20 20:24N 38°16' E 025°19'  
Track history (hours):
 
Tides and Currents Weather Stations Pressure Air Temp Water Temp Dewpoint Dewpoint Depression Visibility Wind Speed Wind Dir Waves Ship Positions

Heinz Schepers

Last reported at 2014-Jul-28 11:33 UTC. Time now 2014-Jul-28 12:28 UTC.
Position N 37°43' E 026°29'.

Length 101 m; draft 6.5 m.

Type: Cargo ship. MMSI: 304596000.

Date/timePositionNaut miles runAvg speedWind from/ knotsBaromVisibWave heightAir tempDewpointWater temp
2014-Jul-28 11:33N 37°43' E 026°29'1513.7
2014-Jul-28 10:30N 37°50' E 026°13'2613.5
2014-Jul-28 08:33N 38°04' E 025°45'1313.5
2014-Jul-28 07:33N 38°11' E 025°30'1513.8
2014-Jul-28 06:29N 38°19' E 025°14'  
2014-Jul-23 22:12N 37°49' E 026°49'14414.4
2014-Jul-23 12:13N 36°09' E 028°58'19314.1
2014-Jul-22 22:33N 34°39' E 032°27'1413.8
2014-Jul-22 21:33N 34°35' E 032°43'1312.9
2014-Jul-22 20:33N 34°32' E 032°58'8 7.9
2014-Jul-22 19:34N 34°39' E 033°01'0 0.2
2014-Jul-22 18:33N 34°39' E 033°01'0 0.0
2014-Jul-22 17:31N 34°39' E 033°01'0 0.0
2014-Jul-22 16:31N 34°39' E 033°01'0 0.0
2014-Jul-22 15:31N 34°39' E 033°01'0 0.0
2014-Jul-22 14:34N 34°39' E 033°01'0 0.0
2014-Jul-22 13:33N 34°39' E 033°01'0 0.0
2014-Jul-22 12:33N 34°39' E 033°01'0 0.0
2014-Jul-22 11:33N 34°39' E 033°01'0 0.0
2014-Jul-22 10:33N 34°39' E 033°01'0 0.0
2014-Jul-22 09:33N 34°39' E 033°01'0 0.0
2014-Jul-22 08:33N 34°39' E 033°01'0 0.4
2014-Jul-22 07:33N 34°39' E 033°01'8 7.6
2014-Jul-22 06:33N 34°32' E 032°59'1313.5
2014-Jul-22 05:33N 34°35' E 032°43'1313.1
2014-Jul-22 04:34N 34°38' E 032°28'31712.6
2014-Jul-21 03:24N 37°19' E 026°51'6613.2
2014-Jul-20 22:22N 38°02' E 025°47'1413.3
2014-Jul-20 21:18N 38°09' E 025°32'1213.6
2014-Jul-20 20:24N 38°16' E 025°19'  

Dump ship's entire track history